Nearby METAR Reports

 

KHOB - Hobbs, New Mexico, USA
Distance from station: S 40mi, 65km
Updated: Tue, 29-Nov-2022 6:15pm MST
Clear
Clear
 Wind from WSW
Wind: WSW 5 mph , 7 km/h
Temperature: 48°F , 9°C
Wind Chill: 46°F , 8°C
Dew Point: 30°F , -1°C
Humidity: 50%
Barometer: 29.94 inHg , 1013.9 hPa
Clouds: Clear
Visibility: 10 miles , 16 km
2022/11/30 01:15 KHOB 300115Z AUTO 25004KT 10SM CLR 09/M01 A2994 RMK AO2
KGNC - Seminole, Texas, USA
Distance from station: SE 55mi, 89km
Updated: Tue, 29-Nov-2022 5:50pm MST
Clear
Clear
 Wind from WSW
Wind: WSW 7 mph , 11 km/h
Temperature: 54°F , 12°C
Dew Point: 30°F , -1°C
Humidity: 41%
Barometer: 29.96 inHg , 1014.6 hPa
Clouds: Clear
Visibility: 10 miles , 16 km
2022/11/30 00:50 KGNC 300050Z AUTO 25006KT 10SM CLR 12/M01 A2996 RMK AO2 T01211006
 
KROW - Roswell, New Mexico, USA
Distance from station: W 67mi, 108km
Updated: Tue, 29-Nov-2022 5:51pm MST
Clear
Clear
 Wind from WSW
Wind: WSW 8 mph , 13 km/h
Temperature: 52°F , 11°C
Dew Point: 30°F , -1°C
Humidity: 44%
Barometer: 29.90 inHg , 1012.5 hPa
Clouds: Clear
Visibility: 10 miles , 16 km
2022/11/30 00:51 KROW 300051Z 25007KT 10SM CLR 11/M01 A2990 RMK AO2 SLP101 T01061006
KATS - Artesia, New Mexico, USA
Distance from station: WSW 71mi, 114km
Updated: Tue, 29-Nov-2022 6:15pm MST
Clear
Clear
 Wind from W
Wind: W 10 mph , 17 km/h
Temperature: 52°F , 11°C
Dew Point: 30°F , -1°C
Humidity: 44%
Barometer: 29.94 inHg , 1013.9 hPa
Clouds: Clear
Visibility: 10 miles , 16 km
2022/11/30 01:15 KATS 300115Z AUTO 26009KT 10SM CLR 11/M01 A2994 RMK AO2
 
KCVS - Cannon AFB,Clovis, New Mexico, USA
Distance from station: 0 78mi, 125km
Updated: Tue, 29-Nov-2022 5:55pm MST
Clear
Clear
 Wind from NNE
Wind: NNE 24 mph , 39 km/h
Temperature: 34°F , 1°C
Wind Chill: 22°F , -6°C
Dew Point: 21°F , -6°C
Humidity: 60%
Barometer: 29.98 inHg , 1015.2 hPa
Clouds: Clear
Visibility: 10 miles , 16 km
2022/11/30 00:55 KCVS 300055Z AUTO 03021KT 10SM CLR 01/M06 A2998 RMK AO2 PK WND 36027/2357 PRESRR SLP160 T00061058 $
KE11 - Andrews, Texas, USA
Distance from station: SE 78mi, 126km
Updated: Tue, 29-Nov-2022 6:15pm MST
Clear
Clear
 Wind from W
Wind: W 10 mph , 17 km/h
Temperature: 61°F , 16°C
Dew Point: 25°F , -4°C
Humidity: 25%
Barometer: 29.94 inHg , 1013.9 hPa
Clouds: Clear
Visibility: 10 miles , 16 km
2022/11/30 01:15 KE11 300115Z AUTO 28009KT 10SM CLR 16/M04 A2994 RMK AO2 T01581045
 
KCNM - Carlsbad, New Mexico, USA
Distance from station: SW 82mi, 132km
Updated: Tue, 29-Nov-2022 5:53pm MST
Clear
Clear
 Wind from W
Wind: W 12 mph , 19 km/h
Temperature: 59°F , 15°C
Dew Point: 23°F , -5°C
Humidity: 25%
Barometer: 29.90 inHg , 1012.5 hPa
Clouds: Clear
Visibility: 10 miles , 16 km
2022/11/30 00:53 KCNM 300053Z AUTO 27010KT 10SM CLR 15/M05 A2990 RMK AO2 SLP096 T01501050
KCVN - Clovis Muni, New Mexico, USA
Distance from station: N 83mi, 133km
Updated: Tue, 29-Nov-2022 5:56pm MST
Clear
Clear
 Wind from NNE
Wind: NNE 18 mph , 30 km/h
Temperature: 30°F , -1°C
Wind Chill: 18°F , -8°C
Dew Point: 21°F , -6°C
Humidity: 69%
Barometer: 30.02 inHg , 1016.6 hPa
Clouds: Clear
Visibility: 10 miles , 16 km
2022/11/30 00:56 KCVN 300056Z AUTO 02016KT 10SM CLR M01/M06 A3002 RMK AO2 PK WND 03028/0016 PRESRR SLP180 T10061056 FZRANO
 
KLBB - Lubbock, Texas, USA
Distance from station: ENE 92mi, 149km
Updated: Tue, 29-Nov-2022 5:53pm MST
Clear
Clear
 Wind from NNE
Wind: NNE 22 mph , 35 km/h, Gust: 31 mph , 50 km/h
Temperature: 43°F , 6°C
Wind Chill: 34°F , 1°C
Dew Point: 28°F , -2°C
Humidity: 57%
Barometer: 29.95 inHg , 1014.2 hPa
Clouds: Clear
Visibility: 10 miles , 16 km
2022/11/30 00:53 KLBB 300053Z 03019G27KT 10SM CLR 06/M02 A2995 RMK AO2 PK WND 04032/2354 WSHFT 2350 PRESRR SLP131 FROPA T00611022
KINK - Wink, Texas, USA
Distance from station: S 101mi, 163km
Updated: Tue, 29-Nov-2022 5:53pm MST
Clear
Clear
 Wind from W
Wind: W 3 mph , 6 km/h
Temperature: 57°F , 14°C
Dew Point: 28°F , -2°C
Humidity: 33%
Barometer: 29.89 inHg , 1012.2 hPa
Clouds: Clear
Visibility: 10 miles , 16 km
2022/11/30 00:53 KINK 300053Z AUTO 28003KT 10SM CLR 14/M02 A2989 RMK AO2 SLP108 T01441017 $
 
KMAF - Midland, Texas, USA
Distance from station: SE 111mi, 179km
Updated: Tue, 29-Nov-2022 5:53pm MST
Clear
Clear
 
Temperature: 55°F , 13°C
Dew Point: 34°F , 1°C
Humidity: 44%
Barometer: 29.90 inHg , 1012.5 hPa
Clouds: Clear
Visibility: 10 miles , 16 km
2022/11/30 00:53 KMAF 300053Z 10SM CLR 13/01 A2990 RMK AO2 SLP105 T01330006
KSRR - Sierra B/Ruidoso, New Mexico, USA
Distance from station: W 127mi, 204km
Updated: Tue, 29-Nov-2022 6:15pm MST

 Wind from WSW
Wind: WSW 6 mph , 9 km/h
Temperature: 45°F , 7°C
Wind Chill: 42°F , 6°C
Dew Point: 12°F , -11°C
Humidity: 27%
Barometer: 30.03 inHg , 1016.9 hPa
Visibility: 10 miles , 16 km
2022/11/30 01:15 KSRR 300115Z AUTO 25005KT 10SM 07/M11 A3003 RMK AO2
 
KGDP - Guadalupe Pass, Texas, USA
Distance from station: SW 130mi, 209km
Updated: Tue, 29-Nov-2022 5:51pm MST

 
2022/11/30 00:51 KGDP 300051Z AUTO RMK AO2 SLPNO PWINO FZRANO PNO $